sensor_id;sensor_type;location;lat;lon;timestamp;P1;durP1;ratioP1;P2;durP2;ratioP2
77384;SDS011;66443;49.122;8.346;2024-02-26T00:00:57;1.97;;;1.70;;
77384;SDS011;66443;49.122;8.346;2024-02-26T00:03:22;2.00;;;1.77;;
77384;SDS011;66443;49.122;8.346;2024-02-26T00:05:47;2.10;;;1.90;;
77384;SDS011;66443;49.122;8.346;2024-02-26T00:08:12;1.73;;;1.60;;
77384;SDS011;66443;49.122;8.346;2024-02-26T00:10:37;1.90;;;1.80;;
77384;SDS011;66443;49.122;8.346;2024-02-26T00:13:03;2.40;;;2.20;;
77384;SDS011;66443;49.122;8.346;2024-02-26T00:15:31;1.50;;;1.40;;
77384;SDS011;66443;49.122;8.346;2024-02-26T00:17:56;1.90;;;1.80;;
77384;SDS011;66443;49.122;8.346;2024-02-26T00:20:21;1.63;;;1.53;;
77384;SDS011;66443;49.122;8.346;2024-02-26T00:22:47;3.83;;;2.27;;
77384;SDS011;66443;49.122;8.346;2024-02-26T00:25:12;1.60;;;1.50;;
77384;SDS011;66443;49.122;8.346;2024-02-26T00:27:37;1.63;;;1.53;;
77384;SDS011;66443;49.122;8.346;2024-02-26T00:30:04;1.70;;;1.60;;
77384;SDS011;66443;49.122;8.346;2024-02-26T00:32:30;2.13;;;1.87;;
77384;SDS011;66443;49.122;8.346;2024-02-26T00:34:55;2.33;;;1.90;;
77384;SDS011;66443;49.122;8.346;2024-02-26T00:37:20;1.83;;;1.60;;
77384;SDS011;66443;49.122;8.346;2024-02-26T00:39:45;2.00;;;1.80;;
77384;SDS011;66443;49.122;8.346;2024-02-26T00:42:11;1.70;;;1.60;;
77384;SDS011;66443;49.122;8.346;2024-02-26T00:44:36;2.83;;;1.83;;
77384;SDS011;66443;49.122;8.346;2024-02-26T00:47:02;2.00;;;1.80;;
77384;SDS011;66443;49.122;8.346;2024-02-26T00:49:27;2.23;;;1.73;;
77384;SDS011;66443;49.122;8.346;2024-02-26T00:51:52;1.70;;;1.60;;
77384;SDS011;66443;49.122;8.346;2024-02-26T00:54:17;1.77;;;1.67;;
77384;SDS011;66443;49.122;8.346;2024-02-26T00:56:43;2.17;;;1.73;;
77384;SDS011;66443;49.122;8.346;2024-02-26T00:59:08;8.27;;;2.87;;
77384;SDS011;66443;49.122;8.346;2024-02-26T01:01:33;2.33;;;2.07;;
77384;SDS011;66443;49.122;8.346;2024-02-26T01:03:58;3.03;;;2.43;;
77384;SDS011;66443;49.122;8.346;2024-02-26T01:06:23;3.07;;;2.10;;
77384;SDS011;66443;49.122;8.346;2024-02-26T01:08:49;3.07;;;2.10;;
77384;SDS011;66443;49.122;8.346;2024-02-26T01:11:14;3.10;;;1.97;;
77384;SDS011;66443;49.122;8.346;2024-02-26T01:13:39;2.00;;;1.90;;
77384;SDS011;66443;49.122;8.346;2024-02-26T01:16:04;3.57;;;2.37;;
77384;SDS011;66443;49.122;8.346;2024-02-26T01:18:30;2.57;;;2.40;;
77384;SDS011;66443;49.122;8.346;2024-02-26T01:20:55;1.80;;;1.70;;
77384;SDS011;66443;49.122;8.346;2024-02-26T01:23:20;1.67;;;1.57;;
77384;SDS011;66443;49.122;8.346;2024-02-26T01:25:46;2.80;;;1.90;;
77384;SDS011;66443;49.122;8.346;2024-02-26T01:28:11;2.03;;;1.83;;
77384;SDS011;66443;49.122;8.346;2024-02-26T01:30:36;1.80;;;1.70;;
77384;SDS011;66443;49.122;8.346;2024-02-26T01:33:02;2.70;;;2.23;;
77384;SDS011;66443;49.122;8.346;2024-02-26T01:35:27;2.73;;;2.30;;
77384;SDS011;66443;49.122;8.346;2024-02-26T01:37:52;2.20;;;2.00;;
77384;SDS011;66443;49.122;8.346;2024-02-26T01:40:17;2.70;;;2.50;;
77384;SDS011;66443;49.122;8.346;2024-02-26T01:42:45;2.63;;;2.10;;
77384;SDS011;66443;49.122;8.346;2024-02-26T01:45:12;2.80;;;2.27;;
77384;SDS011;66443;49.122;8.346;2024-02-26T01:47:40;2.17;;;1.97;;
77384;SDS011;66443;49.122;8.346;2024-02-26T01:50:05;1.63;;;1.43;;
77384;SDS011;66443;49.122;8.346;2024-02-26T01:52:31;2.77;;;2.50;;
77384;SDS011;66443;49.122;8.346;2024-02-26T01:54:57;2.73;;;2.50;;
77384;SDS011;66443;49.122;8.346;2024-02-26T01:57:22;2.23;;;1.97;;
77384;SDS011;66443;49.122;8.346;2024-02-26T01:59:48;3.77;;;2.80;;
77384;SDS011;66443;49.122;8.346;2024-02-26T02:02:13;3.63;;;3.13;;
77384;SDS011;66443;49.122;8.346;2024-02-26T02:04:40;2.87;;;2.50;;
77384;SDS011;66443;49.122;8.346;2024-02-26T02:07:05;3.97;;;2.87;;
77384;SDS011;66443;49.122;8.346;2024-02-26T02:09:31;2.30;;;2.10;;
77384;SDS011;66443;49.122;8.346;2024-02-26T02:11:56;4.33;;;2.53;;
77384;SDS011;66443;49.122;8.346;2024-02-26T02:14:22;2.33;;;2.10;;
77384;SDS011;66443;49.122;8.346;2024-02-26T02:16:47;2.13;;;1.90;;
77384;SDS011;66443;49.122;8.346;2024-02-26T02:19:13;2.17;;;2.03;;
77384;SDS011;66443;49.122;8.346;2024-02-26T02:21:38;1.20;;;1.10;;
77384;SDS011;66443;49.122;8.346;2024-02-26T02:24:03;1.87;;;1.27;;
77384;SDS011;66443;49.122;8.346;2024-02-26T02:26:29;1.13;;;1.10;;
77384;SDS011;66443;49.122;8.346;2024-02-26T02:28:54;1.20;;;1.10;;
77384;SDS011;66443;49.122;8.346;2024-02-26T02:31:19;1.50;;;0.90;;
77384;SDS011;66443;49.122;8.346;2024-02-26T02:33:44;1.00;;;1.00;;
77384;SDS011;66443;49.122;8.346;2024-02-26T02:36:10;1.13;;;1.00;;
77384;SDS011;66443;49.122;8.346;2024-02-26T02:38:36;1.37;;;1.23;;
77384;SDS011;66443;49.122;8.346;2024-02-26T02:41:01;1.13;;;1.10;;
77384;SDS011;66443;49.122;8.346;2024-02-26T02:43:27;1.20;;;1.03;;
77384;SDS011;66443;49.122;8.346;2024-02-26T02:45:52;1.03;;;1.03;;
77384;SDS011;66443;49.122;8.346;2024-02-26T02:48:17;1.23;;;1.07;;
77384;SDS011;66443;49.122;8.346;2024-02-26T02:50:43;0.90;;;0.90;;
77384;SDS011;66443;49.122;8.346;2024-02-26T02:53:08;1.00;;;1.00;;
77384;SDS011;66443;49.122;8.346;2024-02-26T02:55:33;1.70;;;1.00;;
77384;SDS011;66443;49.122;8.346;2024-02-26T02:57:58;0.80;;;0.80;;
77384;SDS011;66443;49.122;8.346;2024-02-26T03:00:24;1.43;;;1.20;;
77384;SDS011;66443;49.122;8.346;2024-02-26T03:02:49;1.93;;;1.17;;
77384;SDS011;66443;49.122;8.346;2024-02-26T03:05:14;1.07;;;1.00;;
77384;SDS011;66443;49.122;8.346;2024-02-26T03:07:40;4.13;;;1.00;;
77384;SDS011;66443;49.122;8.346;2024-02-26T03:10:05;1.33;;;1.20;;
77384;SDS011;66443;49.122;8.346;2024-02-26T03:12:30;0.90;;;0.90;;
77384;SDS011;66443;49.122;8.346;2024-02-26T03:14:55;1.30;;;1.00;;
77384;SDS011;66443;49.122;8.346;2024-02-26T03:17:21;0.90;;;0.90;;
77384;SDS011;66443;49.122;8.346;2024-02-26T03:19:46;0.90;;;0.90;;
77384;SDS011;66443;49.122;8.346;2024-02-26T03:22:12;1.60;;;0.87;;
77384;SDS011;66443;49.122;8.346;2024-02-26T03:24:37;2.40;;;1.03;;
77384;SDS011;66443;49.122;8.346;2024-02-26T03:27:03;1.10;;;1.00;;
77384;SDS011;66443;49.122;8.346;2024-02-26T03:29:30;0.80;;;0.80;;
77384;SDS011;66443;49.122;8.346;2024-02-26T03:31:55;0.93;;;0.93;;
77384;SDS011;66443;49.122;8.346;2024-02-26T03:34:21;1.03;;;1.00;;
77384;SDS011;66443;49.122;8.346;2024-02-26T03:36:46;1.40;;;1.03;;
77384;SDS011;66443;49.122;8.346;2024-02-26T03:39:11;0.90;;;0.90;;
77384;SDS011;66443;49.122;8.346;2024-02-26T03:41:36;0.70;;;0.70;;
77384;SDS011;66443;49.122;8.346;2024-02-26T03:44:02;0.80;;;0.80;;
77384;SDS011;66443;49.122;8.346;2024-02-26T03:46:27;0.90;;;0.90;;
77384;SDS011;66443;49.122;8.346;2024-02-26T03:48:52;1.00;;;1.00;;
77384;SDS011;66443;49.122;8.346;2024-02-26T03:51:17;0.70;;;0.70;;
77384;SDS011;66443;49.122;8.346;2024-02-26T03:53:43;2.40;;;0.90;;
77384;SDS011;66443;49.122;8.346;2024-02-26T03:56:09;0.80;;;0.80;;
77384;SDS011;66443;49.122;8.346;2024-02-26T03:58:36;0.60;;;0.60;;
77384;SDS011;66443;49.122;8.346;2024-02-26T04:01:01;1.20;;;1.10;;
77384;SDS011;66443;49.122;8.346;2024-02-26T04:03:26;1.10;;;1.10;;
77384;SDS011;66443;49.122;8.346;2024-02-26T04:05:51;1.30;;;1.30;;
77384;SDS011;66443;49.122;8.346;2024-02-26T04:08:16;0.90;;;0.90;;
77384;SDS011;66443;49.122;8.346;2024-02-26T04:10:41;1.00;;;1.00;;
77384;SDS011;66443;49.122;8.346;2024-02-26T04:13:07;0.97;;;0.93;;
77384;SDS011;66443;49.122;8.346;2024-02-26T04:15:32;0.80;;;0.80;;
77384;SDS011;66443;49.122;8.346;2024-02-26T04:17:58;1.10;;;1.00;;
77384;SDS011;66443;49.122;8.346;2024-02-26T04:20:23;0.87;;;0.87;;
77384;SDS011;66443;49.122;8.346;2024-02-26T04:22:48;2.20;;;1.00;;
77384;SDS011;66443;49.122;8.346;2024-02-26T04:25:13;0.80;;;0.80;;
77384;SDS011;66443;49.122;8.346;2024-02-26T04:27:39;1.00;;;0.90;;
77384;SDS011;66443;49.122;8.346;2024-02-26T04:30:05;0.70;;;0.70;;
77384;SDS011;66443;49.122;8.346;2024-02-26T04:32:30;0.90;;;0.90;;
77384;SDS011;66443;49.122;8.346;2024-02-26T04:34:55;1.33;;;1.00;;
77384;SDS011;66443;49.122;8.346;2024-02-26T04:37:21;1.20;;;1.20;;
77384;SDS011;66443;49.122;8.346;2024-02-26T04:39:46;0.90;;;0.90;;
77384;SDS011;66443;49.122;8.346;2024-02-26T04:42:11;2.17;;;1.10;;
77384;SDS011;66443;49.122;8.346;2024-02-26T04:44:36;0.70;;;0.70;;
77384;SDS011;66443;49.122;8.346;2024-02-26T04:47:02;1.30;;;1.20;;
77384;SDS011;66443;49.122;8.346;2024-02-26T04:49:27;0.87;;;0.87;;
77384;SDS011;66443;49.122;8.346;2024-02-26T04:51:52;1.50;;;1.00;;
77384;SDS011;66443;49.122;8.346;2024-02-26T04:54:18;1.17;;;1.07;;
77384;SDS011;66443;49.122;8.346;2024-02-26T04:56:43;1.60;;;1.50;;
77384;SDS011;66443;49.122;8.346;2024-02-26T04:59:09;1.00;;;1.00;;
77384;SDS011;66443;49.122;8.346;2024-02-26T05:01:34;1.10;;;1.00;;
77384;SDS011;66443;49.122;8.346;2024-02-26T05:03:59;2.33;;;1.40;;
77384;SDS011;66443;49.122;8.346;2024-02-26T05:06:24;1.30;;;1.20;;
77384;SDS011;66443;49.122;8.346;2024-02-26T05:08:49;1.63;;;1.37;;
77384;SDS011;66443;49.122;8.346;2024-02-26T05:11:15;2.07;;;1.23;;
77384;SDS011;66443;49.122;8.346;2024-02-26T05:13:40;4.83;;;2.10;;
77384;SDS011;66443;49.122;8.346;2024-02-26T05:16:06;6.27;;;3.00;;
77384;SDS011;66443;49.122;8.346;2024-02-26T05:18:31;5.47;;;3.60;;
77384;SDS011;66443;49.122;8.346;2024-02-26T05:20:56;6.03;;;3.50;;
77384;SDS011;66443;49.122;8.346;2024-02-26T05:23:21;6.10;;;3.27;;
77384;SDS011;66443;49.122;8.346;2024-02-26T05:25:46;5.93;;;3.37;;
77384;SDS011;66443;49.122;8.346;2024-02-26T05:28:13;5.13;;;2.90;;
77384;SDS011;66443;49.122;8.346;2024-02-26T05:30:38;5.73;;;3.63;;
77384;SDS011;66443;49.122;8.346;2024-02-26T05:33:05;9.60;;;4.43;;
77384;SDS011;66443;49.122;8.346;2024-02-26T05:35:30;9.00;;;5.23;;
77384;SDS011;66443;49.122;8.346;2024-02-26T05:37:55;2.27;;;1.60;;
77384;SDS011;66443;49.122;8.346;2024-02-26T05:40:20;3.20;;;1.60;;
77384;SDS011;66443;49.122;8.346;2024-02-26T05:42:45;1.40;;;1.30;;
77384;SDS011;66443;49.122;8.346;2024-02-26T05:45:11;0.90;;;0.90;;
77384;SDS011;66443;49.122;8.346;2024-02-26T05:47:36;1.00;;;1.00;;
77384;SDS011;66443;49.122;8.346;2024-02-26T05:50:07;1.80;;;0.90;;
77384;SDS011;66443;49.122;8.346;2024-02-26T05:52:32;1.20;;;1.10;;
77384;SDS011;66443;49.122;8.346;2024-02-26T05:54:57;1.63;;;1.10;;
77384;SDS011;66443;49.122;8.346;2024-02-26T05:57:23;1.07;;;1.00;;
77384;SDS011;66443;49.122;8.346;2024-02-26T05:59:48;1.13;;;1.13;;
77384;SDS011;66443;49.122;8.346;2024-02-26T06:02:13;0.83;;;0.83;;
77384;SDS011;66443;49.122;8.346;2024-02-26T06:04:38;3.50;;;1.50;;
77384;SDS011;66443;49.122;8.346;2024-02-26T06:07:03;1.57;;;1.47;;
77384;SDS011;66443;49.122;8.346;2024-02-26T06:09:30;1.23;;;1.10;;
77384;SDS011;66443;49.122;8.346;2024-02-26T06:11:55;1.30;;;1.20;;
77384;SDS011;66443;49.122;8.346;2024-02-26T06:14:21;1.20;;;1.10;;
77384;SDS011;66443;49.122;8.346;2024-02-26T06:16:46;0.90;;;0.90;;
77384;SDS011;66443;49.122;8.346;2024-02-26T06:19:11;1.30;;;1.20;;
77384;SDS011;66443;49.122;8.346;2024-02-26T06:21:36;1.00;;;1.00;;
77384;SDS011;66443;49.122;8.346;2024-02-26T06:24:02;1.33;;;1.23;;
77384;SDS011;66443;49.122;8.346;2024-02-26T06:26:27;1.40;;;1.30;;
77384;SDS011;66443;49.122;8.346;2024-02-26T06:28:54;1.50;;;1.40;;
77384;SDS011;66443;49.122;8.346;2024-02-26T06:31:19;2.10;;;2.00;;
77384;SDS011;66443;49.122;8.346;2024-02-26T06:33:46;2.17;;;2.00;;
77384;SDS011;66443;49.122;8.346;2024-02-26T06:36:11;1.77;;;1.40;;
77384;SDS011;66443;49.122;8.346;2024-02-26T06:38:36;1.57;;;1.30;;
77384;SDS011;66443;49.122;8.346;2024-02-26T06:41:02;1.40;;;1.30;;
77384;SDS011;66443;49.122;8.346;2024-02-26T06:43:28;1.37;;;1.27;;
77384;SDS011;66443;49.122;8.346;2024-02-26T06:45:53;1.60;;;1.47;;
77384;SDS011;66443;49.122;8.346;2024-02-26T06:48:18;1.27;;;1.17;;
77384;SDS011;66443;49.122;8.346;2024-02-26T06:50:44;1.60;;;1.50;;
77384;SDS011;66443;49.122;8.346;2024-02-26T06:53:09;1.70;;;1.60;;
77384;SDS011;66443;49.122;8.346;2024-02-26T06:55:34;1.60;;;1.50;;
77384;SDS011;66443;49.122;8.346;2024-02-26T06:58:00;1.57;;;1.13;;
77384;SDS011;66443;49.122;8.346;2024-02-26T07:00:25;1.27;;;1.27;;
77384;SDS011;66443;49.122;8.346;2024-02-26T07:02:50;1.40;;;1.30;;
77384;SDS011;66443;49.122;8.346;2024-02-26T07:05:15;1.27;;;1.17;;
77384;SDS011;66443;49.122;8.346;2024-02-26T07:07:41;1.20;;;1.20;;
77384;SDS011;66443;49.122;8.346;2024-02-26T07:10:06;1.60;;;1.50;;
77384;SDS011;66443;49.122;8.346;2024-02-26T07:12:31;1.20;;;1.20;;
77384;SDS011;66443;49.122;8.346;2024-02-26T07:14:57;1.17;;;1.10;;
77384;SDS011;66443;49.122;8.346;2024-02-26T07:17:23;1.17;;;1.17;;
77384;SDS011;66443;49.122;8.346;2024-02-26T07:19:48;1.43;;;1.10;;
77384;SDS011;66443;49.122;8.346;2024-02-26T07:22:13;1.35;;;1.20;;
77384;SDS011;66443;49.122;8.346;2024-02-26T07:24:38;1.70;;;1.60;;
77384;SDS011;66443;49.122;8.346;2024-02-26T07:27:04;1.60;;;1.50;;
77384;SDS011;66443;49.122;8.346;2024-02-26T07:29:29;1.50;;;1.40;;
77384;SDS011;66443;49.122;8.346;2024-02-26T07:31:54;1.80;;;1.70;;
77384;SDS011;66443;49.122;8.346;2024-02-26T07:34:19;1.30;;;1.20;;
77384;SDS011;66443;49.122;8.346;2024-02-26T07:36:44;1.47;;;1.37;;
77384;SDS011;66443;49.122;8.346;2024-02-26T07:39:10;1.90;;;1.30;;
77384;SDS011;66443;49.122;8.346;2024-02-26T07:41:35;1.63;;;1.53;;
77384;SDS011;66443;49.122;8.346;2024-02-26T07:44:00;2.00;;;1.60;;
77384;SDS011;66443;49.122;8.346;2024-02-26T07:46:25;2.67;;;1.47;;
77384;SDS011;66443;49.122;8.346;2024-02-26T07:48:50;2.17;;;1.97;;
77384;SDS011;66443;49.122;8.346;2024-02-26T07:51:16;1.63;;;1.53;;
77384;SDS011;66443;49.122;8.346;2024-02-26T07:53:42;2.13;;;1.90;;
77384;SDS011;66443;49.122;8.346;2024-02-26T07:56:07;1.67;;;1.57;;
77384;SDS011;66443;49.122;8.346;2024-02-26T07:58:32;1.60;;;1.50;;
77384;SDS011;66443;49.122;8.346;2024-02-26T08:00:58;1.83;;;1.67;;
77384;SDS011;66443;49.122;8.346;2024-02-26T08:03:23;1.77;;;1.67;;
77384;SDS011;66443;49.122;8.346;2024-02-26T08:05:49;2.00;;;1.87;;
77384;SDS011;66443;49.122;8.346;2024-02-26T08:08:14;1.97;;;1.60;;
77384;SDS011;66443;49.122;8.346;2024-02-26T08:10:39;1.70;;;1.60;;
77384;SDS011;66443;49.122;8.346;2024-02-26T08:13:04;1.90;;;1.80;;
77384;SDS011;66443;49.122;8.346;2024-02-26T08:15:30;2.00;;;1.80;;
77384;SDS011;66443;49.122;8.346;2024-02-26T08:17:56;2.20;;;2.00;;
77384;SDS011;66443;49.122;8.346;2024-02-26T08:20:21;1.80;;;1.70;;
77384;SDS011;66443;49.122;8.346;2024-02-26T08:22:46;2.40;;;1.90;;
77384;SDS011;66443;49.122;8.346;2024-02-26T08:25:11;1.90;;;1.80;;
77384;SDS011;66443;49.122;8.346;2024-02-26T08:27:36;2.00;;;1.80;;
77384;SDS011;66443;49.122;8.346;2024-02-26T08:30:01;2.47;;;1.87;;
77384;SDS011;66443;49.122;8.346;2024-02-26T08:32:27;1.80;;;1.70;;
77384;SDS011;66443;49.122;8.346;2024-02-26T08:34:52;2.13;;;1.93;;
77384;SDS011;66443;49.122;8.346;2024-02-26T08:37:18;1.70;;;1.60;;
77384;SDS011;66443;49.122;8.346;2024-02-26T08:39:43;3.70;;;2.30;;
77384;SDS011;66443;49.122;8.346;2024-02-26T08:42:08;2.13;;;2.00;;
77384;SDS011;66443;49.122;8.346;2024-02-26T08:44:33;2.30;;;2.10;;
77384;SDS011;66443;49.122;8.346;2024-02-26T08:46:58;2.27;;;2.07;;
77384;SDS011;66443;49.122;8.346;2024-02-26T08:49:24;2.90;;;2.70;;
77384;SDS011;66443;49.122;8.346;2024-02-26T08:51:49;2.77;;;2.57;;
77384;SDS011;66443;49.122;8.346;2024-02-26T08:54:14;2.40;;;2.20;;
77384;SDS011;66443;49.122;8.346;2024-02-26T08:56:39;2.60;;;2.40;;
77384;SDS011;66443;49.122;8.346;2024-02-26T08:59:05;2.40;;;2.20;;
77384;SDS011;66443;49.122;8.346;2024-02-26T09:01:33;3.70;;;2.30;;
77384;SDS011;66443;49.122;8.346;2024-02-26T09:03:58;2.00;;;1.90;;
77384;SDS011;66443;49.122;8.346;2024-02-26T09:06:24;2.67;;;1.83;;
77384;SDS011;66443;49.122;8.346;2024-02-26T09:08:49;2.40;;;2.20;;
77384;SDS011;66443;49.122;8.346;2024-02-26T09:11:14;2.20;;;2.00;;
77384;SDS011;66443;49.122;8.346;2024-02-26T09:13:39;1.90;;;1.80;;
77384;SDS011;66443;49.122;8.346;2024-02-26T09:16:05;2.10;;;1.97;;
77384;SDS011;66443;49.122;8.346;2024-02-26T09:18:30;2.00;;;1.80;;
77384;SDS011;66443;49.122;8.346;2024-02-26T09:20:56;1.70;;;1.60;;
77384;SDS011;66443;49.122;8.346;2024-02-26T09:23:21;2.00;;;1.87;;
77384;SDS011;66443;49.122;8.346;2024-02-26T09:25:46;1.87;;;1.77;;
77384;SDS011;66443;49.122;8.346;2024-02-26T09:28:11;1.73;;;1.63;;
77384;SDS011;66443;49.122;8.346;2024-02-26T09:30:36;2.63;;;1.90;;
77384;SDS011;66443;49.122;8.346;2024-02-26T09:33:03;1.77;;;1.67;;
77384;SDS011;66443;49.122;8.346;2024-02-26T09:35:28;1.90;;;1.70;;
77384;SDS011;66443;49.122;8.346;2024-02-26T09:37:54;1.90;;;1.80;;
77384;SDS011;66443;49.122;8.346;2024-02-26T09:40:19;2.53;;;1.60;;
77384;SDS011;66443;49.122;8.346;2024-02-26T09:42:45;3.93;;;1.60;;
77384;SDS011;66443;49.122;8.346;2024-02-26T09:45:19;1.67;;;1.57;;
77384;SDS011;66443;49.122;8.346;2024-02-26T09:47:46;1.50;;;1.40;;
77384;SDS011;66443;49.122;8.346;2024-02-26T09:50:12;1.50;;;1.30;;
77384;SDS011;66443;49.122;8.346;2024-02-26T09:52:39;1.67;;;1.50;;
77384;SDS011;66443;49.122;8.346;2024-02-26T09:55:06;1.40;;;1.30;;
77384;SDS011;66443;49.122;8.346;2024-02-26T09:57:33;1.40;;;1.30;;
77384;SDS011;66443;49.122;8.346;2024-02-26T09:59:59;1.67;;;1.57;;
77384;SDS011;66443;49.122;8.346;2024-02-26T10:02:26;1.40;;;1.30;;
77384;SDS011;66443;49.122;8.346;2024-02-26T10:04:52;1.60;;;1.50;;
77384;SDS011;66443;49.122;8.346;2024-02-26T10:07:18;1.40;;;1.30;;
77384;SDS011;66443;49.122;8.346;2024-02-26T10:09:43;1.37;;;1.33;;
77384;SDS011;66443;49.122;8.346;2024-02-26T10:12:10;1.33;;;1.23;;
77384;SDS011;66443;49.122;8.346;2024-02-26T10:14:36;1.43;;;1.33;;
77384;SDS011;66443;49.122;8.346;2024-02-26T10:17:01;1.40;;;1.30;;
77384;SDS011;66443;49.122;8.346;2024-02-26T10:19:27;1.93;;;1.83;;
77384;SDS011;66443;49.122;8.346;2024-02-26T10:21:56;1.70;;;1.60;;
77384;SDS011;66443;49.122;8.346;2024-02-26T10:24:22;1.53;;;1.30;;
77384;SDS011;66443;49.122;8.346;2024-02-26T10:26:47;1.30;;;1.20;;
77384;SDS011;66443;49.122;8.346;2024-02-26T10:29:13;2.30;;;1.50;;
77384;SDS011;66443;49.122;8.346;2024-02-26T10:31:41;1.47;;;1.30;;
77384;SDS011;66443;49.122;8.346;2024-02-26T10:34:06;1.40;;;1.30;;
77384;SDS011;66443;49.122;8.346;2024-02-26T10:36:33;2.37;;;1.63;;
77384;SDS011;66443;49.122;8.346;2024-02-26T10:39:01;1.70;;;1.60;;
77384;SDS011;66443;49.122;8.346;2024-02-26T10:41:26;1.50;;;1.40;;
77384;SDS011;66443;49.122;8.346;2024-02-26T10:43:52;1.50;;;1.40;;
77384;SDS011;66443;49.122;8.346;2024-02-26T10:46:17;1.57;;;1.47;;
77384;SDS011;66443;49.122;8.346;2024-02-26T10:48:49;1.60;;;1.50;;
77384;SDS011;66443;49.122;8.346;2024-02-26T10:51:14;2.30;;;2.10;;
77384;SDS011;66443;49.122;8.346;2024-02-26T10:53:39;2.20;;;2.10;;
77384;SDS011;66443;49.122;8.346;2024-02-26T10:56:05;1.80;;;1.70;;
77384;SDS011;66443;49.122;8.346;2024-02-26T10:58:31;1.57;;;1.47;;
77384;SDS011;66443;49.122;8.346;2024-02-26T11:00:57;1.53;;;1.43;;
77384;SDS011;66443;49.122;8.346;2024-02-26T11:03:22;3.40;;;1.90;;
77384;SDS011;66443;49.122;8.346;2024-02-26T11:05:48;1.80;;;1.70;;
77384;SDS011;66443;49.122;8.346;2024-02-26T11:08:13;2.63;;;1.70;;
77384;SDS011;66443;49.122;8.346;2024-02-26T11:10:39;1.60;;;1.50;;
77384;SDS011;66443;49.122;8.346;2024-02-26T11:13:05;1.90;;;1.80;;
77384;SDS011;66443;49.122;8.346;2024-02-26T11:15:31;2.30;;;1.20;;
77384;SDS011;66443;49.122;8.346;2024-02-26T11:17:58;1.40;;;1.30;;
77384;SDS011;66443;49.122;8.346;2024-02-26T11:20:24;1.30;;;1.20;;
77384;SDS011;66443;49.122;8.346;2024-02-26T11:22:50;1.90;;;1.40;;
77384;SDS011;66443;49.122;8.346;2024-02-26T11:25:16;2.13;;;1.50;;
77384;SDS011;66443;49.122;8.346;2024-02-26T11:27:43;1.70;;;1.60;;
77384;SDS011;66443;49.122;8.346;2024-02-26T11:30:10;1.50;;;1.40;;
77384;SDS011;66443;49.122;8.346;2024-02-26T11:32:35;1.47;;;1.33;;
77384;SDS011;66443;49.122;8.346;2024-02-26T11:35:01;3.17;;;1.50;;
77384;SDS011;66443;49.122;8.346;2024-02-26T11:37:26;1.50;;;1.40;;
77384;SDS011;66443;49.122;8.346;2024-02-26T11:39:58;2.10;;;1.90;;
77384;SDS011;66443;49.122;8.346;2024-02-26T11:42:24;1.80;;;1.70;;
77384;SDS011;66443;49.122;8.346;2024-02-26T11:44:53;1.70;;;1.60;;
77384;SDS011;66443;49.122;8.346;2024-02-26T11:47:21;1.83;;;1.70;;
77384;SDS011;66443;49.122;8.346;2024-02-26T11:49:47;1.70;;;1.60;;
77384;SDS011;66443;49.122;8.346;2024-02-26T11:52:13;1.70;;;1.60;;
77384;SDS011;66443;49.122;8.346;2024-02-26T11:57:03;2.00;;;1.60;;
77384;SDS011;66443;49.122;8.346;2024-02-26T11:59:38;1.67;;;1.57;;
77384;SDS011;66443;49.122;8.346;2024-02-26T12:02:03;1.70;;;1.60;;
77384;SDS011;66443;49.122;8.346;2024-02-26T12:04:29;1.70;;;1.60;;
77384;SDS011;66443;49.122;8.346;2024-02-26T12:06:55;2.47;;;1.60;;
77384;SDS011;66443;49.122;8.346;2024-02-26T12:09:37;1.67;;;1.57;;
77384;SDS011;66443;49.122;8.346;2024-02-26T12:12:03;1.57;;;1.47;;
77384;SDS011;66443;49.122;8.346;2024-02-26T12:14:29;2.67;;;1.50;;
77384;SDS011;66443;49.122;8.346;2024-02-26T12:16:54;1.77;;;1.67;;
77384;SDS011;66443;49.122;8.346;2024-02-26T12:19:20;2.50;;;1.80;;
77384;SDS011;66443;49.122;8.346;2024-02-26T12:21:46;2.30;;;2.10;;
77384;SDS011;66443;49.122;8.346;2024-02-26T12:24:15;2.07;;;1.83;;
77384;SDS011;66443;49.122;8.346;2024-02-26T12:26:43;2.93;;;2.20;;
77384;SDS011;66443;49.122;8.346;2024-02-26T12:29:08;1.30;;;1.20;;
77384;SDS011;66443;49.122;8.346;2024-02-26T12:31:34;1.63;;;1.53;;
77384;SDS011;66443;49.122;8.346;2024-02-26T12:34:02;2.40;;;2.20;;
77384;SDS011;66443;49.122;8.346;2024-02-26T12:36:27;2.27;;;1.77;;
77384;SDS011;66443;49.122;8.346;2024-02-26T12:38:52;2.00;;;1.33;;
77384;SDS011;66443;49.122;8.346;2024-02-26T12:41:18;1.30;;;1.20;;
77384;SDS011;66443;49.122;8.346;2024-02-26T12:43:43;1.77;;;1.30;;
77384;SDS011;66443;49.122;8.346;2024-02-26T12:46:08;4.03;;;2.03;;
77384;SDS011;66443;49.122;8.346;2024-02-26T12:48:34;1.43;;;1.33;;
77384;SDS011;66443;49.122;8.346;2024-02-26T12:51:00;3.20;;;1.40;;
77384;SDS011;66443;49.122;8.346;2024-02-26T12:53:26;1.37;;;1.27;;
77384;SDS011;66443;49.122;8.346;2024-02-26T12:55:52;1.50;;;1.37;;
77384;SDS011;66443;49.122;8.346;2024-02-26T12:58:17;1.63;;;1.40;;
77384;SDS011;66443;49.122;8.346;2024-02-26T13:00:44;1.60;;;1.50;;
77384;SDS011;66443;49.122;8.346;2024-02-26T13:03:11;1.50;;;1.40;;
77384;SDS011;66443;49.122;8.346;2024-02-26T13:05:37;1.40;;;1.30;;
77384;SDS011;66443;49.122;8.346;2024-02-26T13:08:02;1.40;;;1.30;;
77384;SDS011;66443;49.122;8.346;2024-02-26T13:10:27;1.20;;;1.10;;
77384;SDS011;66443;49.122;8.346;2024-02-26T13:12:53;1.90;;;1.05;;
77384;SDS011;66443;49.122;8.346;2024-02-26T13:15:19;1.15;;;1.13;;
77384;SDS011;66443;49.122;8.346;2024-02-26T13:17:45;1.60;;;1.50;;
77384;SDS011;66443;49.122;8.346;2024-02-26T13:20:10;1.40;;;1.30;;
77384;SDS011;66443;49.122;8.346;2024-02-26T13:22:36;1.53;;;1.30;;
77384;SDS011;66443;49.122;8.346;2024-02-26T13:25:01;2.43;;;1.50;;
77384;SDS011;66443;49.122;8.346;2024-02-26T13:27:28;2.33;;;1.30;;
77384;SDS011;66443;49.122;8.346;2024-02-26T13:30:09;1.80;;;1.70;;
77384;SDS011;66443;49.122;8.346;2024-02-26T13:32:35;2.33;;;1.70;;
77384;SDS011;66443;49.122;8.346;2024-02-26T13:35:04;1.30;;;1.17;;
77384;SDS011;66443;49.122;8.346;2024-02-26T13:37:31;1.07;;;1.07;;
77384;SDS011;66443;49.122;8.346;2024-02-26T13:39:56;1.00;;;1.00;;
77384;SDS011;66443;49.122;8.346;2024-02-26T13:42:21;1.97;;;1.17;;
77384;SDS011;66443;49.122;8.346;2024-02-26T13:44:46;1.07;;;1.07;;
77384;SDS011;66443;49.122;8.346;2024-02-26T13:47:11;1.50;;;1.40;;
77384;SDS011;66443;49.122;8.346;2024-02-26T13:49:37;1.20;;;1.10;;
77384;SDS011;66443;49.122;8.346;2024-02-26T13:52:02;0.80;;;0.80;;
77384;SDS011;66443;49.122;8.346;2024-02-26T13:54:27;0.70;;;0.70;;
77384;SDS011;66443;49.122;8.346;2024-02-26T13:56:52;0.70;;;0.70;;
77384;SDS011;66443;49.122;8.346;2024-02-26T13:59:18;1.70;;;0.80;;
77384;SDS011;66443;49.122;8.346;2024-02-26T14:01:43;0.60;;;0.60;;
77384;SDS011;66443;49.122;8.346;2024-02-26T14:04:08;1.55;;;0.80;;
77384;SDS011;66443;49.122;8.346;2024-02-26T14:06:34;0.60;;;0.60;;
77384;SDS011;66443;49.122;8.346;2024-02-26T14:08:59;0.70;;;0.70;;
77384;SDS011;66443;49.122;8.346;2024-02-26T14:11:24;0.73;;;0.73;;
77384;SDS011;66443;49.122;8.346;2024-02-26T14:13:50;1.20;;;0.63;;
77384;SDS011;66443;49.122;8.346;2024-02-26T14:16:15;0.60;;;0.60;;
77384;SDS011;66443;49.122;8.346;2024-02-26T14:18:41;0.60;;;0.60;;
77384;SDS011;66443;49.122;8.346;2024-02-26T14:21:09;0.52;;;0.52;;
77384;SDS011;66443;49.122;8.346;2024-02-26T14:23:34;0.40;;;0.40;;
77384;SDS011;66443;49.122;8.346;2024-02-26T14:25:59;0.75;;;0.60;;
77384;SDS011;66443;49.122;8.346;2024-02-26T14:28:26;0.50;;;0.50;;
77384;SDS011;66443;49.122;8.346;2024-02-26T14:30:53;1.55;;;1.05;;
77384;SDS011;66443;49.122;8.346;2024-02-26T14:33:18;1.17;;;0.73;;
77384;SDS011;66443;49.122;8.346;2024-02-26T14:35:43;0.50;;;0.50;;
77384;SDS011;66443;49.122;8.346;2024-02-26T14:38:09;0.60;;;0.60;;
77384;SDS011;66443;49.122;8.346;2024-02-26T14:40:34;0.47;;;0.47;;